Time;durP1;ratioP1;P1;durP2;ratioP2;P2;SDS_P1;SDS_P2;PMS_P1;PMS_P2;Temp;Humidity;BMP_temperature;BMP_pressure;BME280_temperature;BME280_humidity;BME280_pressure;Samples;Min_cycle;Max_cycle;Signal;HPM_P1;HPM_P2
2020/12/12 00:01:30;;;;;;;5.13;4.03;;;1.80;99.90;;;;;;4966055;28;20288;-79
2020/12/12 00:03:55;;;;;;;8.53;5.70;;;1.80;99.90;;;;;;4965389;28;20213;-79
2020/12/12 00:06:22;;;;;;;6.67;4.30;;;1.80;99.90;;;;;;4965650;28;20235;-78
2020/12/12 00:08:48;;;;;;;8.47;6.30;;;1.70;99.90;;;;;;4965719;28;20189;-78
2020/12/12 00:11:13;;;;;;;7.13;4.70;;;1.70;99.90;;;;;;4965244;28;20213;-78
2020/12/12 00:13:39;;;;;;;6.97;5.33;;;1.70;99.90;;;;;;4967025;28;20204;-78
2020/12/12 00:16:06;;;;;;;8.60;4.87;;;1.70;99.90;;;;;;4966711;28;20723;-78
2020/12/12 00:18:32;;;;;;;6.70;4.73;;;1.70;99.90;;;;;;4965550;28;20193;-78
2020/12/12 00:20:58;;;;;;;6.47;4.90;;;1.70;99.90;;;;;;4966699;28;20217;-78
2020/12/12 00:23:23;;;;;;;6.03;3.50;;;1.70;99.90;;;;;;4965078;28;20217;-78
2020/12/12 00:25:49;;;;;;;8.63;4.70;;;1.70;99.90;;;;;;4965254;28;20417;-79
2020/12/12 00:28:15;;;;;;;5.13;4.43;;;1.60;99.90;;;;;;4964550;28;20189;-78
2020/12/12 00:30:41;;;;;;;7.13;5.10;;;1.60;99.90;;;;;;4965142;28;20303;-78
2020/12/12 00:33:06;;;;;;;7.57;5.10;;;1.60;99.90;;;;;;4964948;28;20334;-78
2020/12/12 00:35:32;;;;;;;6.73;5.57;;;1.60;99.90;;;;;;4965090;28;20197;-78
2020/12/12 00:37:57;;;;;;;7.67;4.97;;;1.60;99.90;;;;;;4966291;28;20344;-78
2020/12/12 00:40:23;;;;;;;5.93;4.67;;;1.50;99.90;;;;;;4964801;28;20216;-77
2020/12/12 00:42:49;;;;;;;7.67;4.33;;;1.50;99.90;;;;;;4964596;28;20221;-78
2020/12/12 00:45:14;;;;;;;7.70;5.47;;;1.50;99.90;;;;;;4966257;28;20203;-78
2020/12/12 00:47:40;;;;;;;4.57;3.77;;;1.40;99.90;;;;;;4964720;28;20843;-78
2020/12/12 00:50:05;;;;;;;6.87;4.53;;;1.40;99.90;;;;;;4964648;28;20332;-79
2020/12/12 00:52:31;;;;;;;5.97;5.00;;;1.40;99.90;;;;;;4964805;28;20189;-79
2020/12/12 00:54:57;;;;;;;7.37;5.90;;;1.30;99.90;;;;;;4964639;28;20537;-81
2020/12/12 00:57:22;;;;;;;9.83;6.07;;;1.30;99.90;;;;;;4966837;28;20192;-78
2020/12/12 00:59:48;;;;;;;5.90;4.50;;;1.20;99.90;;;;;;4964569;28;20209;-79
2020/12/12 01:02:13;;;;;;;7.37;5.83;;;1.20;99.90;;;;;;4965047;28;20208;-78
2020/12/12 01:04:39;;;;;;;11.33;6.33;;;1.10;99.90;;;;;;4964752;28;20207;-77
2020/12/12 01:07:05;;;;;;;6.90;5.93;;;1.10;99.90;;;;;;4964771;28;20650;-80
2020/12/12 01:09:30;;;;;;;6.73;5.30;;;1.10;99.90;;;;;;4965612;28;20209;-82
2020/12/12 01:11:56;;;;;;;5.97;4.47;;;1.10;99.90;;;;;;4964871;28;20280;-80
2020/12/12 01:14:22;;;;;;;6.87;4.53;;;1.00;99.90;;;;;;4964995;28;20279;-80
2020/12/12 01:16:48;;;;;;;5.80;4.87;;;1.00;99.90;;;;;;4964663;28;20193;-80
2020/12/12 01:19:13;;;;;;;12.07;6.83;;;1.00;99.90;;;;;;4966185;28;20730;-80
2020/12/12 01:21:39;;;;;;;6.13;4.40;;;1.10;99.90;;;;;;4964890;28;20197;-80
2020/12/12 01:24:05;;;;;;;5.83;5.17;;;1.00;99.90;;;;;;4965247;28;20583;-82
2020/12/12 01:26:31;;;;;;;7.33;5.80;;;1.00;99.90;;;;;;4964960;28;20185;-80
2020/12/12 01:28:59;;;;;;;6.43;3.87;;;1.00;99.90;;;;;;4966370;28;20588;-81
2020/12/12 01:31:25;;;;;;;5.73;4.67;;;1.10;99.90;;;;;;4980652;28;20572;-81
2020/12/12 01:33:51;;;;;;;7.20;4.93;;;1.10;99.90;;;;;;4966356;28;20189;-80
2020/12/12 01:36:17;;;;;;;6.67;4.70;;;1.10;99.90;;;;;;4964608;28;20744;-79
2020/12/12 01:38:43;;;;;;;9.00;6.07;;;1.10;99.90;;;;;;4963653;28;20219;-80
2020/12/12 01:41:08;;;;;;;6.67;4.97;;;1.10;99.90;;;;;;4964185;28;20711;-81
2020/12/12 01:43:34;;;;;;;9.37;5.63;;;1.10;99.90;;;;;;4964479;28;20236;-82
2020/12/12 01:46:00;;;;;;;5.13;3.83;;;1.20;99.90;;;;;;4965670;28;20238;-80
2020/12/12 01:48:26;;;;;;;7.20;4.73;;;1.20;99.90;;;;;;4965911;28;20193;-80
2020/12/12 01:50:51;;;;;;;8.03;5.40;;;1.30;99.90;;;;;;4965109;28;20209;-80
2020/12/12 01:53:19;;;;;;;7.97;5.10;;;1.20;99.90;;;;;;4963999;28;20196;-79
2020/12/12 01:55:48;;;;;;;5.17;4.10;;;1.20;99.90;;;;;;4966197;28;20205;-81
2020/12/12 01:58:17;;;;;;;7.27;5.40;;;1.30;99.90;;;;;;4964611;28;20228;-78
2020/12/12 02:00:43;;;;;;;5.47;3.73;;;1.20;99.90;;;;;;4964164;28;20585;-79
2020/12/12 02:03:12;;;;;;;5.60;4.27;;;1.20;99.90;;;;;;4964157;28;20381;-78
2020/12/12 02:05:41;;;;;;;6.73;4.30;;;1.30;99.90;;;;;;4965873;28;20185;-78
2020/12/12 02:08:10;;;;;;;6.17;5.23;;;1.20;99.90;;;;;;4965515;28;20188;-80
2020/12/12 02:10:37;;;;;;;6.87;4.77;;;1.30;99.90;;;;;;4963756;28;20212;-81
2020/12/12 02:13:07;;;;;;;6.77;5.13;;;1.30;99.90;;;;;;4965611;28;20253;-78
2020/12/12 02:15:32;;;;;;;5.43;4.83;;;1.20;99.90;;;;;;4963817;28;20679;-79
2020/12/12 02:17:59;;;;;;;7.87;4.57;;;1.20;99.90;;;;;;4965263;28;20263;-80
2020/12/12 02:20:25;;;;;;;7.43;4.00;;;1.20;99.90;;;;;;4964535;28;20326;-78
2020/12/12 02:22:51;;;;;;;5.27;3.80;;;1.20;99.90;;;;;;4964076;28;20266;-78
2020/12/12 02:25:16;;;;;;;8.00;5.70;;;1.20;99.90;;;;;;4964146;28;20193;-78
2020/12/12 02:27:42;;;;;;;7.37;4.07;;;1.20;99.90;;;;;;4963922;28;20189;-78
2020/12/12 02:30:08;;;;;;;7.17;5.63;;;1.30;99.90;;;;;;4963502;28;20219;-81
2020/12/12 02:32:34;;;;;;;5.17;4.03;;;1.40;99.90;;;;;;4963825;28;20220;-80
2020/12/12 02:35:01;;;;;;;7.47;5.73;;;1.40;99.90;;;;;;4964702;28;20185;-78
2020/12/12 02:37:27;;;;;;;6.63;3.93;;;1.40;99.90;;;;;;4964792;28;20197;-78
2020/12/12 02:39:52;;;;;;;4.50;3.77;;;1.40;99.90;;;;;;4964464;28;20217;-79
2020/12/12 02:42:18;;;;;;;5.53;4.57;;;1.40;99.90;;;;;;4962042;28;20277;-78
2020/12/12 02:44:44;;;;;;;6.70;5.13;;;1.40;99.90;;;;;;4964565;28;20681;-78
2020/12/12 02:47:10;;;;;;;5.93;4.53;;;1.40;99.90;;;;;;4963705;28;20185;-78
2020/12/12 02:49:35;;;;;;;4.80;3.80;;;1.40;99.90;;;;;;4962407;28;20217;-78
2020/12/12 02:52:01;;;;;;;6.37;3.87;;;1.50;99.90;;;;;;4963966;28;20200;-78
2020/12/12 02:54:27;;;;;;;5.90;4.87;;;1.50;99.90;;;;;;4962136;28;20276;-78
2020/12/12 02:56:53;;;;;;;4.93;4.30;;;1.50;99.90;;;;;;4962672;28;20212;-78
2020/12/12 02:59:18;;;;;;;6.43;4.27;;;1.50;99.90;;;;;;4964176;28;20348;-78
2020/12/12 03:01:44;;;;;;;5.80;4.57;;;1.60;99.90;;;;;;4962681;28;20659;-78
2020/12/12 03:04:10;;;;;;;6.63;4.97;;;1.70;99.90;;;;;;4962537;28;20647;-78
2020/12/12 03:06:37;;;;;;;6.47;4.53;;;1.60;99.90;;;;;;4962823;28;20185;-78
2020/12/12 03:09:03;;;;;;;8.90;5.43;;;1.60;99.90;;;;;;4963885;28;20177;-79
2020/12/12 03:11:29;;;;;;;5.80;4.87;;;1.70;99.90;;;;;;4962111;28;20193;-78
2020/12/12 03:13:55;;;;;;;4.00;2.93;;;1.70;99.90;;;;;;4962703;28;20197;-78
2020/12/12 03:16:20;;;;;;;6.33;4.63;;;1.70;99.90;;;;;;4961960;28;21283;-78
2020/12/12 03:18:46;;;;;;;7.53;4.17;;;1.70;99.90;;;;;;4962932;28;20193;-78
2020/12/12 03:21:11;;;;;;;7.80;5.67;;;1.80;99.90;;;;;;4962146;28;20301;-78
2020/12/12 03:23:37;;;;;;;8.20;5.67;;;1.80;99.90;;;;;;4963722;28;20209;-78
2020/12/12 03:26:03;;;;;;;5.97;5.00;;;1.70;99.90;;;;;;4963732;28;20184;-78
2020/12/12 03:28:28;;;;;;;6.07;4.00;;;1.80;99.90;;;;;;4963572;28;20185;-78
2020/12/12 03:30:54;;;;;;;4.97;3.57;;;1.70;99.90;;;;;;4962058;28;20213;-78
2020/12/12 03:33:19;;;;;;;4.23;3.30;;;1.60;99.90;;;;;;4962166;28;20265;-78
2020/12/12 03:35:45;;;;;;;6.07;3.87;;;1.70;99.90;;;;;;4961866;28;20216;-78
2020/12/12 03:38:10;;;;;;;6.07;4.37;;;1.80;99.90;;;;;;4962357;28;20209;-80
2020/12/12 03:40:36;;;;;;;4.87;3.67;;;1.70;99.90;;;;;;4961603;28;20217;-77
2020/12/12 03:43:02;;;;;;;5.47;3.83;;;1.80;99.90;;;;;;4961866;28;20221;-78
2020/12/12 03:45:27;;;;;;;4.00;3.67;;;1.80;99.90;;;;;;4961594;28;20200;-79
2020/12/12 03:47:53;;;;;;;5.00;4.27;;;1.80;99.90;;;;;;4961208;28;20254;-78
2020/12/12 03:50:27;;;;;;;5.07;3.70;;;1.80;99.90;;;;;;4961921;28;20217;-78
2020/12/12 03:52:53;;;;;;;4.30;3.57;;;1.80;99.90;;;;;;4963164;28;20177;-78
2020/12/12 03:55:19;;;;;;;6.70;4.53;;;1.80;99.90;;;;;;4962837;28;20557;-79
2020/12/12 03:57:44;;;;;;;6.70;4.17;;;1.80;99.90;;;;;;4961624;28;20200;-78
2020/12/12 04:00:10;;;;;;;5.93;3.70;;;1.80;99.90;;;;;;4961432;28;20689;-79
2020/12/12 04:02:36;;;;;;;5.03;3.90;;;1.80;99.90;;;;;;4962706;28;20216;-79
2020/12/12 04:05:01;;;;;;;5.67;4.07;;;1.90;99.90;;;;;;4966060;28;20608;-79
2020/12/12 04:07:27;;;;;;;5.80;4.73;;;1.80;99.90;;;;;;4964802;28;20189;-78
2020/12/12 04:09:52;;;;;;;8.10;5.00;;;1.90;99.90;;;;;;4965555;28;20205;-79
2020/12/12 04:12:18;;;;;;;6.93;4.40;;;1.90;99.90;;;;;;4967153;28;20193;-79
2020/12/12 04:14:44;;;;;;;7.03;5.20;;;1.90;99.90;;;;;;4965569;28;20189;-80
2020/12/12 04:17:09;;;;;;;6.20;4.90;;;1.90;99.90;;;;;;4965634;28;20560;-79
2020/12/12 04:19:35;;;;;;;4.77;4.03;;;1.90;99.90;;;;;;4966957;28;20282;-79
2020/12/12 04:22:01;;;;;;;5.63;3.97;;;1.90;99.90;;;;;;4965564;28;20193;-79
2020/12/12 04:24:27;;;;;;;8.03;5.00;;;1.90;99.90;;;;;;4965527;28;20193;-79
2020/12/12 04:26:52;;;;;;;7.77;5.00;;;1.90;99.90;;;;;;4965111;28;20815;-79
2020/12/12 04:29:18;;;;;;;7.90;5.73;;;1.90;99.90;;;;;;4966670;28;20308;-82
2020/12/12 04:31:44;;;;;;;5.67;3.90;;;1.90;99.90;;;;;;4966984;28;20322;-79
2020/12/12 04:34:09;;;;;;;6.73;3.93;;;1.90;99.90;;;;;;4965809;28;20216;-79
2020/12/12 04:36:35;;;;;;;5.50;4.77;;;1.90;99.90;;;;;;4965678;28;20284;-78
2020/12/12 04:39:01;;;;;;;6.17;4.23;;;1.90;99.90;;;;;;4965487;28;20295;-79
2020/12/12 04:41:27;;;;;;;5.77;4.23;;;1.90;99.90;;;;;;4965718;28;20197;-80
2020/12/12 04:43:54;;;;;;;5.07;4.10;;;2.00;99.90;;;;;;4966278;28;20593;-78
2020/12/12 04:46:20;;;;;;;6.73;4.57;;;1.90;99.90;;;;;;4965364;28;20193;-81
2020/12/12 04:48:46;;;;;;;7.20;4.40;;;1.90;99.90;;;;;;4966918;28;20642;-80
2020/12/12 04:51:13;;;;;;;4.60;4.10;;;1.90;99.90;;;;;;4965284;28;20209;-79
2020/12/12 04:53:40;;;;;;;5.40;4.30;;;2.00;99.90;;;;;;4981408;28;20521;-80
2020/12/12 04:56:07;;;;;;;5.90;4.63;;;2.00;99.90;;;;;;4965053;28;20216;-79
2020/12/12 04:58:37;;;;;;;5.10;3.57;;;1.90;99.90;;;;;;4965066;28;20196;-79
2020/12/12 05:01:03;;;;;;;4.87;3.87;;;1.90;99.90;;;;;;4965022;28;20244;-78
2020/12/12 05:03:31;;;;;;;7.57;4.80;;;2.00;99.90;;;;;;4965123;28;20905;-79
2020/12/12 05:05:57;;;;;;;3.97;3.57;;;1.90;99.90;;;;;;4964247;28;20185;-80
2020/12/12 05:08:22;;;;;;;5.67;4.43;;;2.00;99.90;;;;;;4966076;28;20257;-79
2020/12/12 05:10:51;;;;;;;4.50;3.47;;;1.90;99.90;;;;;;4964333;28;20299;-80
2020/12/12 05:13:25;;;;;;;6.07;3.93;;;1.90;99.90;;;;;;4963950;28;20185;-79
2020/12/12 05:15:53;;;;;;;5.60;4.20;;;1.90;99.90;;;;;;4964194;28;20553;-79
2020/12/12 05:18:19;;;;;;;4.23;3.67;;;1.80;99.90;;;;;;4964740;28;20567;-79
2020/12/12 05:20:46;;;;;;;5.10;4.40;;;1.90;99.90;;;;;;4964242;28;20219;-79
2020/12/12 05:23:16;;;;;;;7.57;4.80;;;1.80;99.90;;;;;;4965327;28;20794;-79
2020/12/12 05:25:44;;;;;;;9.10;5.37;;;1.90;99.90;;;;;;4963565;28;20239;-79
2020/12/12 05:28:11;;;;;;;5.87;4.43;;;1.90;99.90;;;;;;4965612;28;20196;-80
2020/12/12 05:30:38;;;;;;;5.37;4.37;;;1.90;99.90;;;;;;4963774;28;20205;-79
2020/12/12 05:33:05;;;;;;;4.93;4.30;;;1.90;99.90;;;;;;4965382;28;20518;-79
2020/12/12 05:35:32;;;;;;;4.80;3.67;;;2.00;99.90;;;;;;4964070;28;20537;-80
2020/12/12 05:38:03;;;;;;;6.10;4.47;;;2.00;99.90;;;;;;4964607;28;20361;-80
2020/12/12 05:40:29;;;;;;;4.53;3.73;;;2.00;99.90;;;;;;4963909;28;20423;-79
2020/12/12 05:42:54;;;;;;;6.83;4.67;;;2.00;99.90;;;;;;4965426;28;20575;-79
2020/12/12 05:45:20;;;;;;;5.67;4.73;;;2.00;99.90;;;;;;4963979;28;20539;-79
2020/12/12 05:47:46;;;;;;;7.83;5.00;;;2.00;99.90;;;;;;4965364;28;20264;-79
2020/12/12 05:50:12;;;;;;;4.03;3.50;;;2.10;99.90;;;;;;4963835;28;20212;-79
2020/12/12 05:52:43;;;;;;;6.07;4.67;;;2.00;99.90;;;;;;4963722;28;20193;-79
2020/12/12 05:55:09;;;;;;;5.80;3.87;;;2.00;99.90;;;;;;4962820;28;20204;-80
2020/12/12 05:57:37;;;;;;;8.23;5.03;;;2.10;99.90;;;;;;4963512;28;20254;-79
2020/12/12 06:00:06;;;;;;;5.90;3.83;;;2.00;99.90;;;;;;4965056;28;20215;-79
2020/12/12 06:02:36;;;;;;;4.33;3.37;;;2.00;99.90;;;;;;4965118;28;20208;-81
2020/12/12 06:05:05;;;;;;;4.87;3.93;;;2.10;99.90;;;;;;4963490;28;20188;-79
2020/12/12 06:07:33;;;;;;;7.43;5.00;;;2.00;99.90;;;;;;4964041;28;20177;-79
2020/12/12 06:10:04;;;;;;;5.23;4.57;;;2.10;99.90;;;;;;4962665;28;20710;-79
2020/12/12 06:12:31;;;;;;;6.23;4.03;;;2.10;99.90;;;;;;4962802;28;20189;-79
2020/12/12 06:14:58;;;;;;;9.77;4.87;;;2.10;99.90;;;;;;4962760;28;20196;-79
2020/12/12 06:18:05;;;;;;;5.70;4.40;;;2.00;99.90;;;;;;4979129;28;20307;-79
2020/12/12 06:20:33;;;;;;;5.53;3.77;;;2.00;99.90;;;;;;4922842;29;20312;-79
2020/12/12 06:23:01;;;;;;;4.83;3.77;;;2.00;99.90;;;;;;4907451;29;20798;-79
2020/12/12 06:25:27;;;;;;;6.13;4.93;;;2.10;99.90;;;;;;4942823;28;20214;-80
2020/12/12 06:27:54;;;;;;;6.33;5.40;;;2.10;99.90;;;;;;4963325;28;20189;-80
2020/12/12 06:30:23;;;;;;;5.90;4.50;;;2.10;99.90;;;;;;4964649;28;20654;-79
2020/12/12 06:32:49;;;;;;;5.43;4.23;;;2.00;99.90;;;;;;4963168;28;20197;-79
2020/12/12 06:35:16;;;;;;;5.93;4.87;;;2.00;99.90;;;;;;4963824;28;20192;-79
2020/12/12 06:37:42;;;;;;;5.50;4.53;;;2.00;99.90;;;;;;4963284;28;20193;-78
2020/12/12 06:40:15;;;;;;;4.00;3.20;;;2.00;99.90;;;;;;4963967;28;20213;-79
2020/12/12 06:42:46;;;;;;;5.53;4.20;;;2.00;99.90;;;;;;4962824;28;20204;-79
2020/12/12 06:45:18;;;;;;;5.63;3.37;;;2.00;99.90;;;;;;4963067;28;20605;-80
2020/12/12 06:47:46;;;;;;;5.17;3.33;;;2.00;99.90;;;;;;4963314;28;20191;-80
2020/12/12 06:50:17;;;;;;;4.97;4.47;;;2.10;99.90;;;;;;4962443;28;20236;-79
2020/12/12 06:52:43;;;;;;;4.33;3.40;;;2.10;99.90;;;;;;4962179;28;20185;-79
2020/12/12 06:55:11;;;;;;;5.23;4.07;;;2.10;99.90;;;;;;4961606;28;20205;-80
2020/12/12 07:00:05;;;;;;;4.07;3.40;;;2.10;99.90;;;;;;4962388;28;20235;-79
2020/12/12 07:02:31;;;;;;;4.50;4.03;;;2.10;99.90;;;;;;4959179;28;20212;-80
2020/12/12 07:05:17;;;;;;;5.97;4.17;;;2.20;99.90;;;;;;4959657;28;20362;-80
2020/12/12 07:07:43;;;;;;;5.30;3.93;;;2.20;99.90;;;;;;4959764;28;20191;-80
2020/12/12 07:10:10;;;;;;;3.97;3.57;;;2.20;99.90;;;;;;4959755;28;20241;-79
2020/12/12 07:12:37;;;;;;;6.50;4.07;;;2.20;99.90;;;;;;4960742;28;20569;-80
2020/12/12 07:15:03;;;;;;;4.30;3.33;;;2.20;99.90;;;;;;4961477;28;20189;-80
2020/12/12 07:17:29;;;;;;;5.40;3.97;;;2.30;99.90;;;;;;4959577;28;20254;-80
2020/12/12 07:19:55;;;;;;;6.03;4.37;;;2.30;99.90;;;;;;4961043;28;20208;-80
2020/12/12 07:22:21;;;;;;;7.73;4.17;;;2.30;99.90;;;;;;4959748;28;20192;-80
2020/12/12 07:24:46;;;;;;;7.23;4.33;;;2.30;99.90;;;;;;4959457;28;20185;-79
2020/12/12 07:27:12;;;;;;;4.53;3.20;;;2.30;99.90;;;;;;4959480;28;20629;-80
2020/12/12 07:29:38;;;;;;;5.57;4.13;;;2.30;99.90;;;;;;4961804;28;20633;-80
2020/12/12 07:32:04;;;;;;;5.40;3.67;;;2.30;99.90;;;;;;4961018;28;20185;-79
2020/12/12 07:34:30;;;;;;;6.80;4.80;;;2.30;99.90;;;;;;4960283;28;20217;-80
2020/12/12 07:37:08;;;;;;;7.47;4.00;;;2.30;99.90;;;;;;4960844;28;20217;-79
2020/12/12 07:39:42;;;;;;;4.73;3.53;;;2.30;99.90;;;;;;4962661;28;20205;-79
2020/12/12 07:42:11;;;;;;;8.77;4.90;;;2.30;99.90;;;;;;4963715;28;20667;-80
2020/12/12 07:44:40;;;;;;;5.40;4.57;;;2.30;99.90;;;;;;4963642;28;20264;-79
2020/12/12 07:47:11;;;;;;;4.50;3.33;;;2.30;99.90;;;;;;4964307;28;20181;-79
2020/12/12 07:49:37;;;;;;;4.33;3.93;;;2.40;99.90;;;;;;4962871;28;20240;-76
2020/12/12 07:52:08;;;;;;;5.60;4.17;;;2.50;99.90;;;;;;4963582;28;20191;-77
2020/12/12 07:54:42;;;;;;;7.40;4.93;;;2.50;99.90;;;;;;4963030;28;20504;-80
2020/12/12 07:57:15;;;;;;;6.73;4.87;;;2.50;99.90;;;;;;4964489;28;20275;-78
2020/12/12 07:59:43;;;;;;;7.43;4.43;;;2.40;99.90;;;;;;4964378;28;20213;-80
2020/12/12 08:02:12;;;;;;;10.37;7.83;;;2.50;99.90;;;;;;4965610;28;20201;-79
2020/12/12 08:04:38;;;;;;;8.53;6.70;;;2.50;99.90;;;;;;4967006;28;20193;-78
2020/12/12 08:07:18;;;;;;;25.70;14.80;;;2.50;99.90;;;;;;4968252;28;20663;-79
2020/12/12 08:09:49;;;;;;;10.47;7.80;;;2.50;99.90;;;;;;4970944;28;20204;-79
2020/12/12 08:12:30;;;;;;;9.00;8.03;;;2.60;99.90;;;;;;4969994;28;20189;-79
2020/12/12 08:15:07;;;;;;;6.83;4.33;;;2.60;99.90;;;;;;4968501;28;20181;-80
2020/12/12 08:17:33;;;;;;;6.00;4.37;;;2.70;99.90;;;;;;4968698;28;20709;-81
2020/12/12 08:19:59;;;;;;;7.40;5.07;;;2.70;99.90;;;;;;5023444;22;20232;-70
2020/12/12 08:22:25;;;;;;;10.03;8.67;;;2.80;99.90;;;;;;5109516;28;20295;-69
2020/12/12 08:24:51;;;;;;;7.23;5.60;;;2.80;99.90;;;;;;5098342;28;20205;-69
2020/12/12 08:27:26;;;;;;;9.07;6.23;;;2.80;99.90;;;;;;5099098;28;20181;-68
2020/12/12 08:29:56;;;;;;;7.53;5.50;;;2.80;99.90;;;;;;5101297;28;20236;-69
2020/12/12 08:32:31;;;;;;;4.63;3.40;;;2.80;99.90;;;;;;5097629;28;20208;-68
2020/12/12 08:35:14;;;;;;;8.07;5.53;;;2.90;99.90;;;;;;5097536;28;20207;-69
2020/12/12 08:37:49;;;;;;;5.70;4.63;;;2.90;99.90;;;;;;5099347;28;20227;-68
2020/12/12 08:40:15;;;;;;;8.27;5.80;;;2.90;99.90;;;;;;5098784;28;20203;-69
2020/12/12 08:42:41;;;;;;;6.33;4.97;;;3.00;99.90;;;;;;5099293;28;20842;-69
2020/12/12 08:45:17;;;;;;;6.73;4.80;;;3.10;99.90;;;;;;5098651;28;20184;-70
2020/12/12 08:47:43;;;;;;;5.83;3.93;;;3.10;99.90;;;;;;5092447;28;20253;-69
2020/12/12 08:50:10;;;;;;;6.20;4.30;;;3.20;99.90;;;;;;5094557;28;21309;-68
2020/12/12 08:52:35;;;;;;;6.07;4.63;;;3.20;99.90;;;;;;5100190;28;20192;-68
2020/12/12 08:55:03;;;;;;;10.83;5.63;;;3.20;99.90;;;;;;5099429;28;20177;-69
2020/12/12 08:57:28;;;;;;;5.07;4.20;;;3.30;99.90;;;;;;5123234;23;20270;-81
2020/12/12 09:00:01;;;;;;;6.73;4.73;;;3.30;99.90;;;;;;5107991;28;20204;-81
2020/12/12 09:02:28;;;;;;;7.93;5.63;;;3.30;99.90;;;;;;5107831;28;20192;-81
2020/12/12 09:05:11;;;;;;;7.93;4.83;;;3.30;99.90;;;;;;5088639;28;20191;-82
2020/12/12 09:07:37;;;;;;;7.60;4.87;;;3.40;99.90;;;;;;5107993;28;20172;-81
2020/12/12 09:10:12;;;;;;;5.40;4.07;;;3.40;99.90;;;;;;5088149;28;20265;-82
2020/12/12 09:12:49;;;;;;;4.70;3.47;;;3.40;99.90;;;;;;5087985;28;20191;-81
2020/12/12 09:15:15;;;;;;;5.40;4.63;;;3.50;99.90;;;;;;5089004;28;20184;-81
2020/12/12 09:17:41;;;;;;;6.93;4.50;;;3.60;99.90;;;;;;5088446;28;20680;-81
2020/12/12 09:20:08;;;;;;;6.47;5.37;;;3.60;99.90;;;;;;5088418;28;20203;-81
2020/12/12 09:22:35;;;;;;;8.33;4.77;;;3.60;99.90;;;;;;5108103;28;20340;-83
2020/12/12 09:25:01;;;;;;;9.63;5.93;;;3.70;99.90;;;;;;5107269;28;20315;-81
2020/12/12 09:27:26;;;;;;;7.03;5.00;;;3.80;99.90;;;;;;5105125;28;20194;-81
2020/12/12 09:29:52;;;;;;;8.80;5.83;;;3.80;99.90;;;;;;5087592;28;20204;-82
2020/12/12 09:32:18;;;;;;;7.17;5.43;;;3.80;99.90;;;;;;5087541;28;20657;-81
2020/12/12 09:34:43;;;;;;;7.07;4.60;;;3.80;99.90;;;;;;5107003;28;20638;-81
2020/12/12 09:37:09;;;;;;;6.30;4.90;;;3.80;99.90;;;;;;5087228;28;20187;-81
2020/12/12 09:39:34;;;;;;;6.83;4.63;;;3.80;99.90;;;;;;5086586;28;20310;-82
2020/12/12 09:42:00;;;;;;;6.13;4.30;;;3.80;99.90;;;;;;5087791;28;20188;-82
2020/12/12 09:44:27;;;;;;;7.87;4.43;;;3.80;99.90;;;;;;5087224;28;20203;-81
2020/12/12 09:46:53;;;;;;;6.33;4.73;;;3.80;99.90;;;;;;5087255;28;20184;-81
2020/12/12 09:49:19;;;;;;;7.73;5.23;;;3.90;99.90;;;;;;5079346;28;20200;-81
2020/12/12 09:51:46;;;;;;;8.63;5.30;;;3.90;99.90;;;;;;5087124;28;20819;-81
2020/12/12 09:54:13;;;;;;;5.53;3.90;;;3.80;99.90;;;;;;5087503;28;20273;-82
2020/12/12 09:56:38;;;;;;;9.90;5.43;;;3.80;99.90;;;;;;5106152;28;20202;-81
2020/12/12 09:59:04;;;;;;;9.50;6.57;;;3.80;99.90;;;;;;5087318;28;20204;-81
2020/12/12 10:01:33;;;;;;;11.73;7.97;;;3.80;99.90;;;;;;5103327;28;20800;-82
2020/12/12 10:03:58;;;;;;;10.77;8.03;;;3.90;99.90;;;;;;5087438;28;20755;-81
2020/12/12 10:06:24;;;;;;;7.67;5.03;;;4.00;99.90;;;;;;5087432;28;20186;-80
2020/12/12 10:08:50;;;;;;;8.13;4.93;;;4.00;99.90;;;;;;5106930;28;20172;-82
2020/12/12 10:11:15;;;;;;;7.20;5.63;;;4.10;99.90;;;;;;5085225;28;20208;-76
2020/12/12 10:13:41;;;;;;;8.87;6.60;;;4.20;99.90;;;;;;5103042;28;20211;-76
2020/12/12 10:16:06;;;;;;;9.17;6.03;;;4.20;99.90;;;;;;5104079;28;20310;-76
2020/12/12 10:18:33;;;;;;;7.97;6.10;;;4.30;99.90;;;;;;5104980;28;20188;-80
2020/12/12 10:20:59;;;;;;;7.93;5.87;;;4.30;99.90;;;;;;5086787;28;20559;-81
2020/12/12 10:23:25;;;;;;;9.17;5.77;;;4.40;99.90;;;;;;5086926;28;20704;-80
2020/12/12 10:25:50;;;;;;;10.60;6.20;;;4.50;99.90;;;;;;5086546;28;20188;-79
2020/12/12 10:28:17;;;;;;;14.77;8.13;;;4.40;99.90;;;;;;5086497;28;20188;-80
2020/12/12 10:30:43;;;;;;;9.70;5.93;;;4.50;99.90;;;;;;5086401;28;20212;-80
2020/12/12 10:33:09;;;;;;;8.97;5.57;;;4.50;99.90;;;;;;5105920;28;20195;-80
2020/12/12 10:35:35;;;;;;;10.77;7.47;;;4.50;99.90;;;;;;5105470;28;21101;-80
2020/12/12 10:38:01;;;;;;;11.67;5.93;;;4.60;99.90;;;;;;5105829;28;20188;-80
2020/12/12 10:42:56;;;;;;;8.10;5.03;;;4.70;99.90;;;;;;5105809;28;20637;-81
2020/12/12 10:45:22;;;;;;;8.17;5.73;;;4.70;99.90;;;;;;5086236;28;20195;-80
2020/12/12 10:47:48;;;;;;;9.03;5.67;;;4.70;99.90;;;;;;5085845;28;20188;-80
2020/12/12 10:50:13;;;;;;;8.10;5.83;;;4.70;99.90;;;;;;5085875;28;21253;-81
2020/12/12 10:52:40;;;;;;;7.33;5.80;;;4.60;99.90;;;;;;5086834;28;20821;-80
2020/12/12 10:55:06;;;;;;;7.37;5.63;;;4.60;99.90;;;;;;5104361;28;20259;-80
2020/12/12 10:57:32;;;;;;;9.47;6.17;;;4.70;99.90;;;;;;5086797;28;20744;-80
2020/12/12 10:59:59;;;;;;;9.17;6.40;;;4.60;99.90;;;;;;5086936;28;20638;-80
2020/12/12 11:02:28;;;;;;;9.10;5.27;;;4.70;99.90;;;;;;5086401;28;20194;-80
2020/12/12 11:04:54;;;;;;;5.80;4.67;;;4.70;99.90;;;;;;5085318;28;20666;-80
2020/12/12 11:07:19;;;;;;;7.93;5.93;;;4.60;99.90;;;;;;5104664;28;20195;-80
2020/12/12 11:09:46;;;;;;;7.53;5.03;;;4.70;99.90;;;;;;5085746;28;20259;-80
2020/12/12 11:12:13;;;;;;;7.40;5.40;;;4.70;99.90;;;;;;5107951;28;20268;-81
2020/12/12 11:14:40;;;;;;;7.60;5.20;;;4.70;99.90;;;;;;5090138;28;20544;-80
2020/12/12 11:17:05;;;;;;;9.47;6.10;;;4.70;99.90;;;;;;5089684;28;20222;-80
2020/12/12 11:19:31;;;;;;;7.03;5.33;;;4.70;99.90;;;;;;5089719;28;20231;-80
2020/12/12 11:21:57;;;;;;;7.07;4.77;;;4.80;99.90;;;;;;5089847;28;20196;-80
2020/12/12 11:24:23;;;;;;;8.13;5.67;;;4.80;99.90;;;;;;5109744;28;20200;-80
2020/12/12 11:26:51;;;;;;;5.50;3.93;;;4.80;99.90;;;;;;5108811;28;20737;-80
2020/12/12 11:29:16;;;;;;;7.17;5.30;;;4.90;99.90;;;;;;5109125;28;20674;-80
2020/12/12 11:31:45;;;;;;;8.33;5.80;;;4.90;99.90;;;;;;5108467;28;20183;-80
2020/12/12 11:37:45;;;;;;;7.43;5.83;;;5.00;99.90;;;;;;5108265;28;20177;-80
2020/12/12 11:45:25;;;;;;;6.73;5.10;;;5.00;99.90;;;;;;5109410;28;20191;-80
2020/12/12 11:47:47;;;;;;;6.20;4.73;;;5.00;99.90;;;;;;5108549;28;20267;-80
2020/12/12 11:50:13;;;;;;;8.33;5.47;;;5.00;99.90;;;;;;5089126;28;20625;-79
2020/12/12 11:52:42;;;;;;;9.03;6.43;;;5.00;99.90;;;;;;5089270;28;20230;-81
2020/12/12 11:55:08;;;;;;;8.40;6.47;;;5.10;99.90;;;;;;5089405;28;20187;-80
2020/12/12 11:57:34;;;;;;;11.37;7.63;;;5.10;99.90;;;;;;5089047;28;20211;-80
2020/12/12 12:00:08;;;;;;;10.23;6.80;;;5.10;99.90;;;;;;5090509;28;20267;-76
2020/12/12 12:02:33;;;;;;;8.37;6.53;;;5.20;99.90;;;;;;5090920;28;20192;-74
2020/12/12 12:04:59;;;;;;;9.83;6.10;;;5.30;99.90;;;;;;5109946;28;20202;-74
2020/12/12 12:07:25;;;;;;;9.17;6.50;;;5.30;99.90;;;;;;5109460;28;20264;-75
2020/12/12 12:10:02;;;;;;;9.83;6.57;;;5.30;99.90;;;;;;5109170;28;20198;-74
2020/12/12 12:12:27;;;;;;;8.97;6.23;;;5.30;99.90;;;;;;5109556;28;20203;-77
2020/12/12 12:14:53;;;;;;;10.03;5.93;;;5.30;99.90;;;;;;5110800;28;20173;-75
2020/12/12 12:17:18;;;;;;;7.50;5.37;;;5.30;99.90;;;;;;5095013;28;20680;-76
2020/12/12 12:19:44;;;;;;;8.83;5.87;;;5.30;99.90;;;;;;5108059;28;20619;-75
2020/12/12 12:22:09;;;;;;;5.67;4.40;;;5.20;99.90;;;;;;5090029;28;20180;-75
2020/12/12 12:24:36;;;;;;;6.80;4.63;;;5.30;99.90;;;;;;5106967;28;20204;-74
2020/12/12 12:27:03;;;;;;;9.00;5.67;;;5.30;99.90;;;;;;5109411;28;20259;-77
2020/12/12 12:29:29;;;;;;;8.20;5.20;;;5.40;99.90;;;;;;5113870;28;20227;-78
2020/12/12 12:31:54;;;;;;;8.30;6.00;;;5.50;99.90;;;;;;5092902;28;20211;-76
2020/12/12 12:34:20;;;;;;;11.63;7.33;;;5.60;99.90;;;;;;5111939;28;20176;-77
2020/12/12 12:36:46;;;;;;;9.83;6.53;;;5.60;99.90;;;;;;5093473;28;20184;-78
2020/12/12 12:39:12;;;;;;;8.87;6.73;;;5.70;99.90;;;;;;5112126;28;20190;-78
2020/12/12 12:41:38;;;;;;;9.23;6.10;;;5.80;99.90;;;;;;5094252;28;20271;-77
2020/12/12 12:44:05;;;;;;;9.37;6.43;;;5.80;99.90;;;;;;5120730;28;20848;-78
2020/12/12 12:46:34;;;;;;;8.37;5.77;;;5.70;99.90;;;;;;5111098;28;20183;-78
2020/12/12 12:49:00;;;;;;;10.03;6.03;;;5.90;99.90;;;;;;5111477;28;20673;-78
2020/12/12 12:51:26;;;;;;;9.93;6.70;;;5.90;99.90;;;;;;5114081;28;20440;-75
2020/12/12 12:53:53;;;;;;;7.20;5.03;;;5.80;99.90;;;;;;5100267;28;20212;-77
2020/12/12 12:56:25;;;;;;;7.13;4.70;;;5.80;99.90;;;;;;5101431;28;20264;-75
2020/12/12 12:58:52;;;;;;;8.63;5.37;;;5.80;99.90;;;;;;5096432;28;20646;-78
2020/12/12 13:01:19;;;;;;;9.30;5.83;;;5.80;99.90;;;;;;5116772;28;20204;-79
2020/12/12 13:03:44;;;;;;;10.53;6.20;;;5.80;99.90;;;;;;5117353;28;20204;-78
2020/12/12 13:06:16;;;;;;;9.20;5.83;;;5.70;99.90;;;;;;5112774;28;20237;-73
2020/12/12 13:08:41;;;;;;;8.03;5.87;;;5.60;99.90;;;;;;5092839;28;20229;-74